sensor_id;sensor_type;location;lat;lon;timestamp;pressure;altitude;pressure_sealevel;temperature;humidity
47330;BME280;33060;50.178;7.570;2023-02-11T00:01:11;98871.06;;;1.99;90.20
47330;BME280;33060;50.178;7.570;2023-02-11T00:03:38;98869.31;;;1.99;90.52
47330;BME280;33060;50.178;7.570;2023-02-11T00:06:06;98864.09;;;1.99;90.08
47330;BME280;33060;50.178;7.570;2023-02-11T00:08:35;98875.41;;;2.00;90.08
47330;BME280;33060;50.178;7.570;2023-02-11T00:11:02;98867.56;;;2.03;89.71
47330;BME280;33060;50.178;7.570;2023-02-11T00:13:30;98870.16;;;2.09;89.49
47330;BME280;33060;50.178;7.570;2023-02-11T00:15:56;98865.84;;;2.04;89.79
47330;BME280;33060;50.178;7.570;2023-02-11T00:18:23;98864.06;;;2.09;89.27
47330;BME280;33060;50.178;7.570;2023-02-11T00:20:50;98855.44;;;2.02;89.62
47330;BME280;33060;50.178;7.570;2023-02-11T00:23:16;98860.63;;;2.04;89.75
47330;BME280;33060;50.178;7.570;2023-02-11T00:25:44;98856.22;;;2.13;89.19
47330;BME280;33060;50.178;7.570;2023-02-11T00:28:11;98852.75;;;2.13;89.11
47330;BME280;33060;50.178;7.570;2023-02-11T00:30:39;98851.91;;;2.09;89.17
47330;BME280;33060;50.178;7.570;2023-02-11T00:33:06;98849.31;;;2.11;89.11
47330;BME280;33060;50.178;7.570;2023-02-11T00:35:36;98851.91;;;2.09;89.16
47330;BME280;33060;50.178;7.570;2023-02-11T00:38:03;98847.53;;;2.13;88.74
47330;BME280;33060;50.178;7.570;2023-02-11T00:40:30;98850.16;;;2.13;88.74
47330;BME280;33060;50.178;7.570;2023-02-11T00:42:56;98853.59;;;2.15;89.10
47330;BME280;33060;50.178;7.570;2023-02-11T00:45:23;98847.44;;;2.25;88.31
47330;BME280;33060;50.178;7.570;2023-02-11T00:47:49;98844.88;;;2.22;88.41
47330;BME280;33060;50.178;7.570;2023-02-11T00:50:16;98849.25;;;2.18;88.46
47330;BME280;33060;50.178;7.570;2023-02-11T00:52:43;98846.59;;;2.21;88.25
47330;BME280;33060;50.178;7.570;2023-02-11T00:55:09;98845.69;;;2.25;88.17
47330;BME280;33060;50.178;7.570;2023-02-11T00:57:36;98845.75;;;2.19;88.68
47330;BME280;33060;50.178;7.570;2023-02-11T01:00:05;98847.50;;;2.20;88.58
47330;BME280;33060;50.178;7.570;2023-02-11T01:02:32;98836.22;;;2.18;88.65
47330;BME280;33060;50.178;7.570;2023-02-11T01:04:59;98835.28;;;2.24;88.42
47330;BME280;33060;50.178;7.570;2023-02-11T01:07:27;98829.16;;;2.31;88.11
47330;BME280;33060;50.178;7.570;2023-02-11T01:09:54;98829.22;;;2.26;88.27
47330;BME280;33060;50.178;7.570;2023-02-11T01:12:21;98829.22;;;2.23;88.60
47330;BME280;33060;50.178;7.570;2023-02-11T01:14:48;98837.03;;;2.28;88.70
47330;BME280;33060;50.178;7.570;2023-02-11T01:17:18;98830.88;;;2.32;88.66
47330;BME280;33060;50.178;7.570;2023-02-11T01:19:44;98830.88;;;2.35;88.25
47330;BME280;33060;50.178;7.570;2023-02-11T01:22:11;98832.56;;;2.41;88.09
47330;BME280;33060;50.178;7.570;2023-02-11T01:24:38;98838.69;;;2.35;88.53
47330;BME280;33060;50.178;7.570;2023-02-11T01:27:06;98836.06;;;2.38;87.88
47330;BME280;33060;50.178;7.570;2023-02-11T01:29:33;98832.53;;;2.44;87.98
47330;BME280;33060;50.178;7.570;2023-02-11T01:32:00;98830.81;;;2.41;88.29
47330;BME280;33060;50.178;7.570;2023-02-11T01:34:26;98829.09;;;2.40;87.98
47330;BME280;33060;50.178;7.570;2023-02-11T01:36:57;98824.78;;;2.38;88.33
47330;BME280;33060;50.178;7.570;2023-02-11T01:39:26;98830.03;;;2.35;88.66
47330;BME280;33060;50.178;7.570;2023-02-11T01:41:53;98828.28;;;2.34;88.39
47330;BME280;33060;50.178;7.570;2023-02-11T01:44:33;98822.13;;;2.42;87.89
47330;BME280;33060;50.178;7.570;2023-02-11T01:46:59;98813.50;;;2.37;88.02
47330;BME280;33060;50.178;7.570;2023-02-11T01:49:29;98818.72;;;2.34;88.25
47330;BME280;33060;50.178;7.570;2023-02-11T01:52:15;98812.63;;;2.37;88.25
47330;BME280;33060;50.178;7.570;2023-02-11T01:54:48;98807.50;;;2.29;88.65
47330;BME280;33060;50.178;7.570;2023-02-11T01:57:38;98805.78;;;2.28;89.22
47330;BME280;33060;50.178;7.570;2023-02-11T02:00:13;98810.91;;;2.37;88.97
47330;BME280;33060;50.178;7.570;2023-02-11T02:03:17;98801.31;;;2.39;88.65
47330;BME280;33060;50.178;7.570;2023-02-11T02:06:02;98792.63;;;2.43;88.06
47330;BME280;33060;50.178;7.570;2023-02-11T02:08:46;98792.63;;;2.40;88.21
47330;BME280;33060;50.178;7.570;2023-02-11T02:11:15;98793.53;;;2.36;88.28
47330;BME280;33060;50.178;7.570;2023-02-11T02:13:42;98781.41;;;2.32;88.63
47330;BME280;33060;50.178;7.570;2023-02-11T02:16:15;98776.22;;;2.31;88.91
47330;BME280;33060;50.178;7.570;2023-02-11T02:18:55;98784.94;;;2.25;89.13
47330;BME280;33060;50.178;7.570;2023-02-11T02:32:28;98787.53;;;2.28;89.08
47330;BME280;33060;50.178;7.570;2023-02-11T02:35:06;98789.28;;;2.24;88.96
47330;BME280;33060;50.178;7.570;2023-02-11T02:37:52;98792.78;;;2.23;89.05
47330;BME280;33060;50.178;7.570;2023-02-11T02:40:30;98799.00;;;2.09;90.06
47330;BME280;33060;50.178;7.570;2023-02-11T02:42:58;98807.66;;;2.11;90.25
47330;BME280;33060;50.178;7.570;2023-02-11T02:45:26;98815.47;;;2.08;90.11
47330;BME280;33060;50.178;7.570;2023-02-11T02:47:53;98807.69;;;2.05;90.69
47330;BME280;33060;50.178;7.570;2023-02-11T02:50:23;98824.22;;;2.02;90.85
47330;BME280;33060;50.178;7.570;2023-02-11T02:58:47;98813.81;;;2.01;90.64
47330;BME280;33060;50.178;7.570;2023-02-11T03:04:29;98803.31;;;2.08;90.55
47330;BME280;33060;50.178;7.570;2023-02-11T03:07:13;98787.72;;;2.05;90.20
47330;BME280;33060;50.178;7.570;2023-02-11T03:10:01;98798.16;;;2.05;90.64
47330;BME280;33060;50.178;7.570;2023-02-11T03:12:30;98793.84;;;2.03;90.21
47330;BME280;33060;50.178;7.570;2023-02-11T03:15:00;98800.78;;;2.02;90.64
47330;BME280;33060;50.178;7.570;2023-02-11T03:17:28;98803.44;;;1.94;91.17
47330;BME280;33060;50.178;7.570;2023-02-11T03:20:08;98797.41;;;1.92;91.43
47330;BME280;33060;50.178;7.570;2023-02-11T03:22:53;98793.84;;;1.99;91.02
47330;BME280;33060;50.178;7.570;2023-02-11T03:25:27;98793.78;;;2.09;90.50
47330;BME280;33060;50.178;7.570;2023-02-11T03:28:02;98798.19;;;2.01;90.83
47330;BME280;33060;50.178;7.570;2023-02-11T03:30:37;98790.34;;;2.04;90.96
47330;BME280;33060;50.178;7.570;2023-02-11T03:33:19;98773.00;;;2.04;90.72
47330;BME280;33060;50.178;7.570;2023-02-11T03:35:54;98777.38;;;1.97;91.39
47330;BME280;33060;50.178;7.570;2023-02-11T03:38:26;98776.50;;;1.98;91.25
47330;BME280;33060;50.178;7.570;2023-02-11T03:40:55;98773.09;;;1.90;91.61
47330;BME280;33060;50.178;7.570;2023-02-11T03:43:36;98767.06;;;1.88;91.94
47330;BME280;33060;50.178;7.570;2023-02-11T03:46:04;98754.97;;;1.84;91.75
47330;BME280;33060;50.178;7.570;2023-02-11T03:48:35;98738.53;;;1.76;92.29
47330;BME280;33060;50.178;7.570;2023-02-11T03:51:06;98720.34;;;1.72;92.83
47330;BME280;33060;50.178;7.570;2023-02-11T03:53:35;98734.28;;;1.63;93.31
47330;BME280;33060;50.178;7.570;2023-02-11T03:56:05;98719.59;;;1.59;93.97
47330;BME280;33060;50.178;7.570;2023-02-11T03:58:34;98726.56;;;1.52;93.88
47330;BME280;33060;50.178;7.570;2023-02-11T04:01:00;98730.06;;;1.51;93.94
47330;BME280;33060;50.178;7.570;2023-02-11T04:03:28;98725.75;;;1.49;94.26
47330;BME280;33060;50.178;7.570;2023-02-11T04:05:54;98723.13;;;1.47;94.52
47330;BME280;33060;50.178;7.570;2023-02-11T04:08:21;98716.22;;;1.45;94.35
47330;BME280;33060;50.178;7.570;2023-02-11T04:10:48;98711.03;;;1.43;94.65
47330;BME280;33060;50.178;7.570;2023-02-11T04:13:14;98718.84;;;1.38;94.69
47330;BME280;33060;50.178;7.570;2023-02-11T04:15:41;98736.22;;;1.36;94.57
47330;BME280;33060;50.178;7.570;2023-02-11T04:18:07;98738.81;;;1.36;95.19
47330;BME280;33060;50.178;7.570;2023-02-11T04:20:34;98737.94;;;1.40;94.84
47330;BME280;33060;50.178;7.570;2023-02-11T04:23:01;98737.94;;;1.37;94.83
47330;BME280;33060;50.178;7.570;2023-02-11T04:25:27;98738.00;;;1.28;94.93
47330;BME280;33060;50.178;7.570;2023-02-11T04:27:54;98751.03;;;1.25;95.63
47330;BME280;33060;50.178;7.570;2023-02-11T04:30:21;98747.53;;;1.26;95.65
47330;BME280;33060;50.178;7.570;2023-02-11T04:32:47;98756.22;;;1.25;95.89
47330;BME280;33060;50.178;7.570;2023-02-11T04:35:14;98752.78;;;1.22;95.51
47330;BME280;33060;50.178;7.570;2023-02-11T04:37:41;98760.59;;;1.22;96.10
47330;BME280;33060;50.178;7.570;2023-02-11T04:40:08;98753.63;;;1.24;96.41
47330;BME280;33060;50.178;7.570;2023-02-11T04:42:34;98761.38;;;1.28;96.15
47330;BME280;33060;50.178;7.570;2023-02-11T04:45:01;98758.75;;;1.36;96.76
47330;BME280;33060;50.178;7.570;2023-02-11T04:47:28;98757.84;;;1.43;96.13
47330;BME280;33060;50.178;7.570;2023-02-11T04:49:55;98754.34;;;1.49;96.19
47330;BME280;33060;50.178;7.570;2023-02-11T04:52:21;98749.97;;;1.54;95.46
47330;BME280;33060;50.178;7.570;2023-02-11T04:54:48;98756.03;;;1.53;95.45
47330;BME280;33060;50.178;7.570;2023-02-11T04:57:15;98743.00;;;1.56;95.26
47330;BME280;33060;50.178;7.570;2023-02-11T04:59:41;98731.72;;;1.60;95.96
47330;BME280;33060;50.178;7.570;2023-02-11T05:02:08;98722.19;;;1.60;95.22
47330;BME280;33060;50.178;7.570;2023-02-11T05:04:34;98721.31;;;1.61;95.71
47330;BME280;33060;50.178;7.570;2023-02-11T05:07:01;98723.88;;;1.64;95.35
47330;BME280;33060;50.178;7.570;2023-02-11T05:09:28;98719.50;;;1.69;95.13
47330;BME280;33060;50.178;7.570;2023-02-11T05:11:54;98716.88;;;1.71;95.35
47330;BME280;33060;50.178;7.570;2023-02-11T05:14:21;98703.88;;;1.73;95.27
47330;BME280;33060;50.178;7.570;2023-02-11T05:16:48;98708.19;;;1.74;95.61
47330;BME280;33060;50.178;7.570;2023-02-11T05:19:15;98706.47;;;1.74;95.84
47330;BME280;33060;50.178;7.570;2023-02-11T05:21:41;98704.66;;;1.82;95.36
47330;BME280;33060;50.178;7.570;2023-02-11T05:24:26;98695.97;;;1.86;95.30
47330;BME280;33060;50.178;7.570;2023-02-11T05:26:53;98708.06;;;1.89;95.53
47330;BME280;33060;50.178;7.570;2023-02-11T05:29:20;98704.59;;;1.90;95.45
47330;BME280;33060;50.178;7.570;2023-02-11T05:31:46;98706.31;;;1.91;95.41
47330;BME280;33060;50.178;7.570;2023-02-11T05:34:13;98709.75;;;1.94;95.02
47330;BME280;33060;50.178;7.570;2023-02-11T05:36:40;98718.41;;;1.96;95.12
47330;BME280;33060;50.178;7.570;2023-02-11T05:39:07;98720.13;;;1.97;95.27
47330;BME280;33060;50.178;7.570;2023-02-11T05:41:33;98733.97;;;1.99;95.34
47330;BME280;33060;50.178;7.570;2023-02-11T05:44:00;98731.38;;;2.03;95.41
47330;BME280;33060;50.178;7.570;2023-02-11T05:46:26;98728.78;;;1.99;95.79
47330;BME280;33060;50.178;7.570;2023-02-11T05:48:53;98734.88;;;2.00;96.33
47330;BME280;33060;50.178;7.570;2023-02-11T05:51:22;98737.47;;;2.02;96.03
47330;BME280;33060;50.178;7.570;2023-02-11T05:53:52;98735.66;;;2.07;95.74
47330;BME280;33060;50.178;7.570;2023-02-11T05:56:18;98734.81;;;2.05;95.88
47330;BME280;33060;50.178;7.570;2023-02-11T05:58:45;98729.66;;;2.00;95.98
47330;BME280;33060;50.178;7.570;2023-02-11T06:01:12;98733.13;;;1.99;95.71
47330;BME280;33060;50.178;7.570;2023-02-11T06:03:38;98740.06;;;2.02;95.71
47330;BME280;33060;50.178;7.570;2023-02-11T06:06:11;98730.53;;;2.01;95.55
47330;BME280;33060;50.178;7.570;2023-02-11T06:08:38;98737.53;;;1.92;96.35
47330;BME280;33060;50.178;7.570;2023-02-11T06:11:05;98738.38;;;1.94;96.57
47330;BME280;33060;50.178;7.570;2023-02-11T06:13:32;98740.94;;;1.97;96.18
47330;BME280;33060;50.178;7.570;2023-02-11T06:16:00;98747.00;;;1.99;96.22
47330;BME280;33060;50.178;7.570;2023-02-11T06:18:28;98744.41;;;1.99;96.39
47330;BME280;33060;50.178;7.570;2023-02-11T06:20:55;98751.34;;;2.01;96.37
47330;BME280;33060;50.178;7.570;2023-02-11T06:23:22;98745.25;;;2.03;95.90
47330;BME280;33060;50.178;7.570;2023-02-11T06:25:49;98745.22;;;2.06;95.82
47330;BME280;33060;50.178;7.570;2023-02-11T06:28:17;98737.44;;;2.03;96.05
47330;BME280;33060;50.178;7.570;2023-02-11T06:30:44;98745.16;;;2.14;95.34
47330;BME280;33060;50.178;7.570;2023-02-11T06:33:11;98742.59;;;2.09;94.97
47330;BME280;33060;50.178;7.570;2023-02-11T06:35:38;98746.94;;;2.07;95.83
47330;BME280;33060;50.178;7.570;2023-02-11T06:38:04;98747.78;;;2.11;95.12
47330;BME280;33060;50.178;7.570;2023-02-11T06:40:31;98749.53;;;2.10;95.29
47330;BME280;33060;50.178;7.570;2023-02-11T06:42:58;98747.78;;;2.08;95.17
47330;BME280;33060;50.178;7.570;2023-02-11T06:45:24;98739.97;;;2.08;95.32
47330;BME280;33060;50.178;7.570;2023-02-11T06:47:51;98733.94;;;2.09;95.53
47330;BME280;33060;50.178;7.570;2023-02-11T06:50:18;98736.50;;;2.10;94.88
47330;BME280;33060;50.178;7.570;2023-02-11T06:52:45;98734.75;;;2.12;94.61
47330;BME280;33060;50.178;7.570;2023-02-11T06:55:11;98739.09;;;2.12;94.63
47330;BME280;33060;50.178;7.570;2023-02-11T06:57:38;98738.22;;;2.11;94.56
47330;BME280;33060;50.178;7.570;2023-02-11T07:00:05;98732.09;;;2.17;94.30
47330;BME280;33060;50.178;7.570;2023-02-11T07:02:32;98732.06;;;2.20;94.30
47330;BME280;33060;50.178;7.570;2023-02-11T07:04:58;98733.84;;;2.16;94.15
47330;BME280;33060;50.178;7.570;2023-02-11T07:07:26;98726.03;;;2.18;94.42
47330;BME280;33060;50.178;7.570;2023-02-11T07:09:53;98731.22;;;2.16;94.32
47330;BME280;33060;50.178;7.570;2023-02-11T07:12:19;98733.84;;;2.15;94.69
47330;BME280;33060;50.178;7.570;2023-02-11T07:14:46;98728.63;;;2.16;94.50
47330;BME280;33060;50.178;7.570;2023-02-11T07:17:12;98733.72;;;2.29;93.87
47330;BME280;33060;50.178;7.570;2023-02-11T07:19:39;98731.06;;;2.33;93.05
47330;BME280;33060;50.178;7.570;2023-02-11T07:22:06;98744.91;;;2.38;93.22
47330;BME280;33060;50.178;7.570;2023-02-11T07:24:32;98746.69;;;2.36;92.76
47330;BME280;33060;50.178;7.570;2023-02-11T07:26:59;98744.84;;;2.43;92.62
47330;BME280;33060;50.178;7.570;2023-02-11T07:29:25;98743.06;;;2.48;92.09
47330;BME280;33060;50.178;7.570;2023-02-11T07:31:52;98748.25;;;2.49;92.08
47330;BME280;33060;50.178;7.570;2023-02-11T07:34:19;98749.03;;;2.58;91.56
47330;BME280;33060;50.178;7.570;2023-02-11T07:36:46;98741.09;;;2.70;90.84
47330;BME280;33060;50.178;7.570;2023-02-11T07:39:14;98744.59;;;2.66;91.16
47330;BME280;33060;50.178;7.570;2023-02-11T07:41:40;98741.81;;;2.82;90.04
47330;BME280;33060;50.178;7.570;2023-02-11T07:44:08;98749.59;;;2.87;90.39
47330;BME280;33060;50.178;7.570;2023-02-11T07:46:35;98753.03;;;2.86;90.38
47330;BME280;33060;50.178;7.570;2023-02-11T07:49:02;98748.69;;;2.88;90.38
47330;BME280;33060;50.178;7.570;2023-02-11T07:51:29;98744.28;;;2.93;90.99
47330;BME280;33060;50.178;7.570;2023-02-11T07:53:57;98742.50;;;2.95;90.93
47330;BME280;33060;50.178;7.570;2023-02-11T07:56:25;98752.69;;;3.15;90.25
47330;BME280;33060;50.178;7.570;2023-02-11T07:58:51;98769.13;;;3.22;89.47
47330;BME280;33060;50.178;7.570;2023-02-11T08:01:21;98770.81;;;3.26;89.88
47330;BME280;33060;50.178;7.570;2023-02-11T08:03:51;98775.19;;;3.21;89.25
47330;BME280;33060;50.178;7.570;2023-02-11T08:06:19;98777.84;;;3.19;89.73
47330;BME280;33060;50.178;7.570;2023-02-11T08:08:46;98782.06;;;3.28;90.22
47330;BME280;33060;50.178;7.570;2023-02-11T08:13:47;98780.22;;;3.36;89.83
47330;BME280;33060;50.178;7.570;2023-02-11T08:16:32;98774.16;;;3.35;90.84
47330;BME280;33060;50.178;7.570;2023-02-11T08:19:02;98768.81;;;3.43;91.25
47330;BME280;33060;50.178;7.570;2023-02-11T08:21:29;98781.91;;;3.38;92.22
47330;BME280;33060;50.178;7.570;2023-02-11T08:23:56;98785.50;;;3.33;93.36
47330;BME280;33060;50.178;7.570;2023-02-11T08:26:25;98789.75;;;3.40;93.52
47330;BME280;33060;50.178;7.570;2023-02-11T08:28:55;98774.09;;;3.40;94.01
47330;BME280;33060;50.178;7.570;2023-02-11T08:31:28;98767.16;;;3.39;94.78
47330;BME280;33060;50.178;7.570;2023-02-11T08:33:55;98771.47;;;3.42;94.63
47330;BME280;33060;50.178;7.570;2023-02-11T08:36:25;98769.81;;;3.34;95.49
47330;BME280;33060;50.178;7.570;2023-02-11T08:38:54;98778.44;;;3.38;95.01
47330;BME280;33060;50.178;7.570;2023-02-11T08:41:41;98775.78;;;3.43;95.88
47330;BME280;33060;50.178;7.570;2023-02-11T08:44:08;98791.38;;;3.49;95.24
47330;BME280;33060;50.178;7.570;2023-02-11T08:46:34;98793.97;;;3.49;95.33
47330;BME280;33060;50.178;7.570;2023-02-11T08:49:01;98787.91;;;3.47;96.79
47330;BME280;33060;50.178;7.570;2023-02-11T08:51:29;98788.75;;;3.47;95.35
47330;BME280;33060;50.178;7.570;2023-02-11T08:53:57;98792.47;;;3.29;95.94
47330;BME280;33060;50.178;7.570;2023-02-11T08:56:24;98791.59;;;3.32;95.91
47330;BME280;33060;50.178;7.570;2023-02-11T08:58:52;98778.50;;;3.35;96.25
47330;BME280;33060;50.178;7.570;2023-02-11T09:01:21;98786.34;;;3.33;96.21
47330;BME280;33060;50.178;7.570;2023-02-11T09:03:48;98788.13;;;3.30;96.36
47330;BME280;33060;50.178;7.570;2023-02-11T09:06:15;98794.16;;;3.35;97.10
47330;BME280;33060;50.178;7.570;2023-02-11T09:08:46;98798.50;;;3.34;96.92
47330;BME280;33060;50.178;7.570;2023-02-11T09:11:16;98805.47;;;3.34;97.10
47330;BME280;33060;50.178;7.570;2023-02-11T09:13:45;98805.38;;;3.42;97.42
47330;BME280;33060;50.178;7.570;2023-02-11T09:16:21;98806.22;;;3.42;97.41
47330;BME280;33060;50.178;7.570;2023-02-11T09:18:49;98802.72;;;3.45;96.70
47330;BME280;33060;50.178;7.570;2023-02-11T09:21:17;98811.44;;;3.42;97.59
47330;BME280;33060;50.178;7.570;2023-02-11T09:23:45;98818.31;;;3.49;98.43
47330;BME280;33060;50.178;7.570;2023-02-11T09:28:41;98810.38;;;3.57;97.61
47330;BME280;33060;50.178;7.570;2023-02-11T09:31:10;98806.00;;;3.59;96.39
47330;BME280;33060;50.178;7.570;2023-02-11T09:33:39;98808.66;;;3.54;96.60
47330;BME280;33060;50.178;7.570;2023-02-11T09:36:07;98805.16;;;3.58;97.36
47330;BME280;33060;50.178;7.570;2023-02-11T09:38:34;98823.50;;;3.51;96.97
47330;BME280;33060;50.178;7.570;2023-02-11T09:41:01;98819.06;;;3.57;96.34
47330;BME280;33060;50.178;7.570;2023-02-11T09:43:43;98825.06;;;3.62;96.77
47330;BME280;33060;50.178;7.570;2023-02-11T09:46:15;98829.53;;;3.54;96.63
47330;BME280;33060;50.178;7.570;2023-02-11T09:48:45;98826.03;;;3.57;97.02
47330;BME280;33060;50.178;7.570;2023-02-11T09:54:55;98827.78;;;3.56;97.37
47330;BME280;33060;50.178;7.570;2023-02-11T09:57:20;98828.53;;;3.63;96.77
47330;BME280;33060;50.178;7.570;2023-02-11T09:59:55;98835.34;;;3.73;96.98
47330;BME280;33060;50.178;7.570;2023-02-11T10:02:35;98832.75;;;3.75;95.38
47330;BME280;33060;50.178;7.570;2023-02-11T10:05:28;98839.66;;;3.77;95.07
47330;BME280;33060;50.178;7.570;2023-02-11T10:08:09;98846.63;;;3.77;94.67
47330;BME280;33060;50.178;7.570;2023-02-11T10:10:58;98852.66;;;3.80;95.17
47330;BME280;33060;50.178;7.570;2023-02-11T10:19:05;98865.56;;;3.92;94.62
47330;BME280;33060;50.178;7.570;2023-02-11T10:21:52;98868.13;;;3.94;94.76
47330;BME280;33060;50.178;7.570;2023-02-11T10:24:24;98885.44;;;4.00;94.38
47330;BME280;33060;50.178;7.570;2023-02-11T10:26:51;98883.72;;;3.98;94.60
47330;BME280;33060;50.178;7.570;2023-02-11T10:29:35;98886.22;;;4.06;94.68
47330;BME280;33060;50.178;7.570;2023-02-11T10:32:12;98884.56;;;4.02;94.18
47330;BME280;33060;50.178;7.570;2023-02-11T10:34:41;98882.81;;;4.03;94.10
47330;BME280;33060;50.178;7.570;2023-02-11T10:37:11;98879.34;;;3.99;94.26
47330;BME280;33060;50.178;7.570;2023-02-11T10:39:39;98877.59;;;4.03;94.80
47330;BME280;33060;50.178;7.570;2023-02-11T10:42:09;98874.88;;;4.10;93.65
47330;BME280;33060;50.178;7.570;2023-02-11T10:44:43;98863.56;;;4.10;93.90
47330;BME280;33060;50.178;7.570;2023-02-11T10:47:19;98865.97;;;4.22;93.86
47330;BME280;33060;50.178;7.570;2023-02-11T10:49:47;98858.06;;;4.27;93.47
47330;BME280;33060;50.178;7.570;2023-02-11T10:52:23;98865.84;;;4.30;93.24
47330;BME280;33060;50.178;7.570;2023-02-11T10:57:34;98865.78;;;4.33;93.32
47330;BME280;33060;50.178;7.570;2023-02-11T11:00:14;98857.00;;;4.38;93.06
47330;BME280;33060;50.178;7.570;2023-02-11T11:02:52;98865.75;;;4.34;93.50
47330;BME280;33060;50.178;7.570;2023-02-11T11:05:25;98846.53;;;4.40;92.81
47330;BME280;33060;50.178;7.570;2023-02-11T11:07:56;98845.63;;;4.41;92.70
47330;BME280;33060;50.178;7.570;2023-02-11T11:10:30;98839.53;;;4.42;92.76
47330;BME280;33060;50.178;7.570;2023-02-11T11:12:59;98838.56;;;4.47;92.74
47330;BME280;33060;50.178;7.570;2023-02-11T11:15:30;98834.81;;;4.62;91.21
47330;BME280;33060;50.178;7.570;2023-02-11T11:18:13;98839.28;;;4.56;91.71
47330;BME280;33060;50.178;7.570;2023-02-11T11:21:25;98827.03;;;4.61;91.68
47330;BME280;33060;50.178;7.570;2023-02-11T11:23:57;98826.97;;;4.64;91.45
47330;BME280;33060;50.178;7.570;2023-02-11T11:26:38;98820.00;;;4.63;92.25
47330;BME280;33060;50.178;7.570;2023-02-11T11:29:14;98821.94;;;4.53;92.32
47330;BME280;33060;50.178;7.570;2023-02-11T11:31:53;98831.34;;;4.60;91.35
47330;BME280;33060;50.178;7.570;2023-02-11T11:34:30;98834.81;;;4.62;91.58
47330;BME280;33060;50.178;7.570;2023-02-11T11:36:59;98827.84;;;4.63;91.46
47330;BME280;33060;50.178;7.570;2023-02-11T11:39:31;98833.97;;;4.60;91.59
47330;BME280;33060;50.178;7.570;2023-02-11T11:42:02;98839.06;;;4.69;91.91
47330;BME280;33060;50.178;7.570;2023-02-11T11:44:35;98831.31;;;4.63;91.64
47330;BME280;33060;50.178;7.570;2023-02-11T11:47:14;98832.16;;;4.65;91.58
47330;BME280;33060;50.178;7.570;2023-02-11T11:52:37;98839.25;;;4.57;92.54
47330;BME280;33060;50.178;7.570;2023-02-11T11:55:17;98830.53;;;4.58;92.05
47330;BME280;33060;50.178;7.570;2023-02-11T11:57:46;98835.66;;;4.64;91.73
47330;BME280;33060;50.178;7.570;2023-02-11T12:00:38;98827.03;;;4.59;91.22
47330;BME280;33060;50.178;7.570;2023-02-11T12:03:14;98828.81;;;4.57;92.39
47330;BME280;33060;50.178;7.570;2023-02-11T12:05:51;98827.16;;;4.51;92.17
47330;BME280;33060;50.178;7.570;2023-02-11T12:08:43;98831.38;;;4.59;92.35
47330;BME280;33060;50.178;7.570;2023-02-11T12:40:27;98822.00;;;5.39;88.04
47330;BME280;33060;50.178;7.570;2023-02-11T12:57:26;98809.53;;;5.51;87.66
47330;BME280;33060;50.178;7.570;2023-02-11T13:00:21;98805.16;;;5.51;87.40
47330;BME280;33060;50.178;7.570;2023-02-11T13:03:24;98810.44;;;5.50;87.06
47330;BME280;33060;50.178;7.570;2023-02-11T13:05:57;98816.53;;;5.50;86.89
47330;BME280;33060;50.178;7.570;2023-02-11T13:08:32;98819.34;;;5.41;87.93
47330;BME280;33060;50.178;7.570;2023-02-11T13:11:03;98807.72;;;5.54;87.49
47330;BME280;33060;50.178;7.570;2023-02-11T13:13:38;98807.72;;;5.54;87.77
47330;BME280;33060;50.178;7.570;2023-02-11T13:19:16;98799.66;;;5.63;87.05
47330;BME280;33060;50.178;7.570;2023-02-11T13:21:50;98792.53;;;5.70;86.36
47330;BME280;33060;50.178;7.570;2023-02-11T13:24:45;98790.50;;;5.83;86.69
47330;BME280;33060;50.178;7.570;2023-02-11T13:27:51;98799.22;;;5.83;86.19
47330;BME280;33060;50.178;7.570;2023-02-11T13:30:34;98800.03;;;5.85;85.98
47330;BME280;33060;50.178;7.570;2023-02-11T13:35:47;98780.13;;;5.78;86.01
47330;BME280;33060;50.178;7.570;2023-02-11T13:38:28;98781.78;;;5.82;86.05
47330;BME280;33060;50.178;7.570;2023-02-11T13:43:40;98780.38;;;5.67;86.86
47330;BME280;33060;50.178;7.570;2023-02-11T13:46:10;98779.75;;;5.56;87.18
47330;BME280;33060;50.178;7.570;2023-02-11T13:48:49;98783.28;;;5.54;87.56
47330;BME280;33060;50.178;7.570;2023-02-11T13:51:36;98782.53;;;5.49;87.51
47330;BME280;33060;50.178;7.570;2023-02-11T13:54:06;98781.56;;;5.53;87.96
47330;BME280;33060;50.178;7.570;2023-02-11T13:56:44;98772.97;;;5.46;88.11
47330;BME280;33060;50.178;7.570;2023-02-11T14:16:16;98775.59;;;5.46;89.53
47330;BME280;33060;50.178;7.570;2023-02-11T14:18:58;98786.09;;;5.45;90.66
47330;BME280;33060;50.178;7.570;2023-02-11T14:26:30;98794.13;;;5.37;91.78
47330;BME280;33060;50.178;7.570;2023-02-11T14:29:17;98784.50;;;5.39;90.96
47330;BME280;33060;50.178;7.570;2023-02-11T14:31:54;98787.91;;;5.43;90.93
47330;BME280;33060;50.178;7.570;2023-02-11T14:43:10;98788.03;;;5.36;91.87
47330;BME280;33060;50.178;7.570;2023-02-11T14:45:39;98780.00;;;5.44;91.32
47330;BME280;33060;50.178;7.570;2023-02-11T14:48:16;98780.06;;;5.43;91.30
47330;BME280;33060;50.178;7.570;2023-02-11T14:51:09;98780.09;;;5.41;91.31
47330;BME280;33060;50.178;7.570;2023-02-11T14:53:41;98792.44;;;5.34;91.69
47330;BME280;33060;50.178;7.570;2023-02-11T14:56:27;98786.44;;;5.29;92.22
47330;BME280;33060;50.178;7.570;2023-02-11T14:58:57;98789.94;;;5.28;92.52
47330;BME280;33060;50.178;7.570;2023-02-11T15:01:30;98790.94;;;5.23;92.85
47330;BME280;33060;50.178;7.570;2023-02-11T15:04:12;98795.44;;;5.16;93.66
47330;BME280;33060;50.178;7.570;2023-02-11T15:06:47;98786.81;;;5.13;93.93
47330;BME280;33060;50.178;7.570;2023-02-11T15:09:20;98796.38;;;5.12;94.10
47330;BME280;33060;50.178;7.570;2023-02-11T15:11:51;98794.69;;;5.09;94.13
47330;BME280;33060;50.178;7.570;2023-02-11T15:14:31;98798.22;;;5.08;95.20
47330;BME280;33060;50.178;7.570;2023-02-11T15:17:06;98797.38;;;5.06;95.18
47330;BME280;33060;50.178;7.570;2023-02-11T15:19:37;98793.84;;;5.09;94.83
47330;BME280;33060;50.178;7.570;2023-02-11T15:22:07;98793.84;;;5.09;95.04
47330;BME280;33060;50.178;7.570;2023-02-11T15:24:43;98797.41;;;5.05;95.93
47330;BME280;33060;50.178;7.570;2023-02-11T15:27:12;98802.69;;;5.02;96.40
47330;BME280;33060;50.178;7.570;2023-02-11T15:29:46;98804.41;;;5.03;96.92
47330;BME280;33060;50.178;7.570;2023-02-11T15:32:24;98804.47;;;5.00;97.54
47330;BME280;33060;50.178;7.570;2023-02-11T15:34:52;98813.19;;;5.00;96.22